createdAt,value
2018-07-16T00:00:07.174Z,50.60
2018-07-16T00:02:35.239Z,50.70
2018-07-16T00:05:03.351Z,50.70
2018-07-16T00:07:31.422Z,50.70
2018-07-16T00:09:59.488Z,50.70
2018-07-16T00:12:27.559Z,50.70
2018-07-16T00:14:55.627Z,50.70
2018-07-16T00:17:23.718Z,50.70
2018-07-16T00:19:51.859Z,50.70
2018-07-16T00:22:19.943Z,50.70
2018-07-16T00:24:48.015Z,50.70
2018-07-16T00:27:16.255Z,50.70
2018-07-16T00:29:44.339Z,50.70
2018-07-16T00:32:12.752Z,50.70
2018-07-16T00:34:40.826Z,50.70
2018-07-16T00:37:08.948Z,50.70
2018-07-16T00:39:37.018Z,51.40
2018-07-16T00:42:05.091Z,50.70
2018-07-16T00:44:33.159Z,50.80
2018-07-16T00:47:01.280Z,50.70
2018-07-16T00:49:29.353Z,50.70
2018-07-16T00:51:57.421Z,50.70
2018-07-16T00:54:25.487Z,50.80
2018-07-16T00:56:53.582Z,50.80
2018-07-16T01:01:49.648Z,50.70
2018-07-16T01:04:17.731Z,50.70
2018-07-16T01:06:45.821Z,50.70
2018-07-16T01:09:13.894Z,50.70
2018-07-16T01:11:41.971Z,50.80
2018-07-16T01:14:10.051Z,50.70
2018-07-16T01:16:38.115Z,50.70
2018-07-16T01:19:06.215Z,50.70
2018-07-16T01:21:34.283Z,50.80
2018-07-16T01:24:02.355Z,50.70
2018-07-16T01:26:30.413Z,50.70
2018-07-16T01:28:58.483Z,50.70
2018-07-16T01:31:26.555Z,50.80
2018-07-16T01:33:54.630Z,50.70
2018-07-16T01:36:22.938Z,50.70
2018-07-16T01:38:51.010Z,50.70
2018-07-16T01:41:19.067Z,50.70
2018-07-16T01:43:47.149Z,50.70
2018-07-16T01:46:15.322Z,50.70
2018-07-16T01:48:43.387Z,50.70
2018-07-16T01:51:11.463Z,50.70
2018-07-16T01:53:39.540Z,50.70
2018-07-16T01:56:07.633Z,50.80
2018-07-16T01:58:35.706Z,50.70
2018-07-16T02:01:04.095Z,50.70
2018-07-16T02:03:33.295Z,50.70
2018-07-16T02:06:01.363Z,50.70
2018-07-16T02:08:29.642Z,50.70
2018-07-16T02:10:58.011Z,50.70
2018-07-16T02:13:26.076Z,50.70
2018-07-16T02:15:54.135Z,50.70
2018-07-16T02:18:22.210Z,50.70
2018-07-16T02:20:50.498Z,50.70
2018-07-16T02:23:18.786Z,50.80
2018-07-16T02:25:47.155Z,50.70
2018-07-16T02:28:15.231Z,50.70
2018-07-16T02:30:43.306Z,50.70
2018-07-16T02:33:12.494Z,50.70
2018-07-16T02:35:40.706Z,50.70
2018-07-16T02:38:08.817Z,50.80
2018-07-16T02:40:36.895Z,50.80
2018-07-16T02:43:04.974Z,51.40
2018-07-16T02:45:33.035Z,50.80
2018-07-16T02:48:01.112Z,50.80
2018-07-16T02:50:29.392Z,50.80
2018-07-16T02:52:57.484Z,50.80
2018-07-16T02:55:25.547Z,50.80
2018-07-16T02:57:53.647Z,50.80
2018-07-16T03:00:21.723Z,50.80
2018-07-16T03:02:49.905Z,50.80
2018-07-16T03:05:19.150Z,50.80
2018-07-16T03:07:48.243Z,50.90
2018-07-16T03:10:16.307Z,50.90
2018-07-16T03:12:44.886Z,50.90
2018-07-16T03:15:13.297Z,50.90
2018-07-16T03:17:41.678Z,50.90
2018-07-16T03:20:09.751Z,50.90
2018-07-16T03:22:38.039Z,50.90
2018-07-16T03:25:06.276Z,50.90
2018-07-16T03:27:34.392Z,50.90
2018-07-16T03:30:02.469Z,50.90
2018-07-16T03:32:30.531Z,50.90
2018-07-16T03:34:58.604Z,50.90
2018-07-16T03:37:26.660Z,50.90
2018-07-16T03:39:54.735Z,50.90
2018-07-16T03:42:22.786Z,50.90
2018-07-16T03:44:50.862Z,50.90
2018-07-16T03:47:18.935Z,50.90
2018-07-16T03:49:47.398Z,50.90
2018-07-16T03:52:15.477Z,50.90
2018-07-16T03:54:43.542Z,50.90
2018-07-16T03:57:11.651Z,50.90
2018-07-16T03:59:39.734Z,50.90
2018-07-16T04:02:07.807Z,50.80
2018-07-16T04:04:35.882Z,50.90
2018-07-16T04:07:03.971Z,50.90
2018-07-16T04:09:32.063Z,50.90
2018-07-16T04:12:00.138Z,50.90
2018-07-16T04:14:28.231Z,50.90
2018-07-16T04:16:56.320Z,50.90
2018-07-16T04:19:24.410Z,50.90
2018-07-16T04:21:52.558Z,50.90
2018-07-16T04:24:20.635Z,50.90
2018-07-16T04:26:48.712Z,50.90
2018-07-16T04:29:16.796Z,50.90
2018-07-16T04:31:44.883Z,50.90
2018-07-16T04:34:12.963Z,50.90
2018-07-16T04:36:41.018Z,51.00
2018-07-16T04:39:09.151Z,51.00
2018-07-16T04:41:37.211Z,51.00
2018-07-16T04:44:05.319Z,51.00
2018-07-16T04:46:33.379Z,50.90
2018-07-16T04:49:01.445Z,51.00
2018-07-16T04:51:29.516Z,51.00
2018-07-16T04:53:57.858Z,51.00
2018-07-16T04:56:25.922Z,51.00
2018-07-16T04:58:53.986Z,50.90
2018-07-16T05:01:22.196Z,50.90
2018-07-16T05:03:50.243Z,50.90
2018-07-16T05:06:18.306Z,50.80
2018-07-16T05:08:46.394Z,50.80
2018-07-16T05:11:14.487Z,50.70
2018-07-16T05:13:42.770Z,50.70
2018-07-16T05:16:10.891Z,50.60
2018-07-16T05:21:06.898Z,50.50
2018-07-16T05:23:34.959Z,50.50
2018-07-16T05:26:03.044Z,50.50
2018-07-16T05:28:31.111Z,50.50
2018-07-16T05:30:59.198Z,50.50
2018-07-16T05:33:27.258Z,50.40
2018-07-16T05:35:55.330Z,51.10
2018-07-16T05:38:23.388Z,50.30
2018-07-16T05:40:51.471Z,50.40
2018-07-16T05:43:19.531Z,51.00
2018-07-16T05:45:47.859Z,50.40
2018-07-16T05:48:15.927Z,50.40
2018-07-16T05:50:44.000Z,50.40
2018-07-16T05:53:12.062Z,50.30
2018-07-16T05:55:40.131Z,50.30
2018-07-16T05:58:08.232Z,50.00
2018-07-16T06:00:36.302Z,49.20
2018-07-16T06:03:04.564Z,48.50
2018-07-16T06:05:32.650Z,48.40
2018-07-16T06:08:00.808Z,48.50
2018-07-16T06:10:28.887Z,48.30
2018-07-16T06:12:56.943Z,48.40
2018-07-16T06:15:25.031Z,48.10
2018-07-16T06:17:53.087Z,48.10
2018-07-16T06:20:21.168Z,48.10
2018-07-16T06:22:49.245Z,48.10
2018-07-16T06:25:17.332Z,48.50
2018-07-16T06:27:45.414Z,49.20
2018-07-16T06:30:13.470Z,48.90
2018-07-16T06:32:41.811Z,48.60
2018-07-16T06:35:09.864Z,48.30
2018-07-16T06:37:37.936Z,47.90
2018-07-16T06:40:06.098Z,47.70
2018-07-16T06:45:01.999Z,47.50
2018-07-16T06:47:30.078Z,47.40
2018-07-16T06:49:58.142Z,47.50
2018-07-16T06:52:26.271Z,47.60
2018-07-16T06:54:54.639Z,47.60
2018-07-16T06:57:22.719Z,47.80
2018-07-16T06:59:51.078Z,47.70
2018-07-16T07:02:19.196Z,47.70
2018-07-16T07:04:47.259Z,47.50
2018-07-16T07:07:15.419Z,47.60
2018-07-16T07:09:44.139Z,47.10
2018-07-16T07:12:12.519Z,47.30
2018-07-16T07:14:41.265Z,47.30
2018-07-16T07:17:09.579Z,47.50
2018-07-16T07:19:37.667Z,47.50
2018-07-16T07:22:06.095Z,47.50
2018-07-16T07:24:34.312Z,48.10
2018-07-16T07:27:03.052Z,47.80
2018-07-16T07:29:31.432Z,47.70
2018-07-16T07:32:03.873Z,47.80
2018-07-16T07:34:31.934Z,47.20
2018-07-16T07:37:00.013Z,47.30
2018-07-16T07:39:28.105Z,47.40
2018-07-16T07:41:56.557Z,47.50
2018-07-16T07:44:24.630Z,47.80
2018-07-16T07:46:53.004Z,47.80
2018-07-16T07:49:21.059Z,48.00
2018-07-16T07:51:49.147Z,48.00
2018-07-16T07:54:17.256Z,48.90
2018-07-16T07:56:45.281Z,47.80
2018-07-16T07:59:13.343Z,48.00
2018-07-16T08:01:41.764Z,48.10
2018-07-16T08:04:10.127Z,48.20
2018-07-16T08:06:38.207Z,47.20
2018-07-16T08:09:10.970Z,47.80
2018-07-16T08:11:39.058Z,47.60
2018-07-16T08:14:07.114Z,47.80
2018-07-16T08:16:35.182Z,48.10
2018-07-16T08:19:03.264Z,47.20
2018-07-16T08:21:31.344Z,47.50
2018-07-16T08:23:59.523Z,47.60
2018-07-16T08:26:27.613Z,47.90
2018-07-16T08:28:55.678Z,47.80
2018-07-16T08:31:23.769Z,48.20
2018-07-16T08:33:51.823Z,47.70
2018-07-16T08:36:19.892Z,47.60
2018-07-16T08:38:47.967Z,47.40
2018-07-16T08:41:16.060Z,47.80
2018-07-16T08:43:44.450Z,48.20
2018-07-16T08:46:12.586Z,48.00
2018-07-16T08:48:40.608Z,48.30
2018-07-16T08:51:08.684Z,48.40
2018-07-16T08:53:36.869Z,48.20
2018-07-16T08:56:05.248Z,47.60
2018-07-16T08:58:33.350Z,47.80
2018-07-16T09:01:01.443Z,48.00
2018-07-16T09:03:29.518Z,48.60
2018-07-16T09:06:04.642Z,48.50
2018-07-16T09:08:34.466Z,47.70
2018-07-16T09:11:02.736Z,47.00
2018-07-16T09:13:30.763Z,47.20
2018-07-16T09:15:58.821Z,47.50
2018-07-16T09:18:26.898Z,47.80
2018-07-16T09:20:55.019Z,47.90
2018-07-16T09:23:23.099Z,48.10
2018-07-16T09:25:51.187Z,48.50
2018-07-16T09:28:19.262Z,48.10
2018-07-16T09:30:47.342Z,48.10
2018-07-16T09:33:15.463Z,48.10
2018-07-16T09:35:43.594Z,47.60
2018-07-16T09:38:11.666Z,46.90
2018-07-16T09:40:40.074Z,47.30
2018-07-16T09:43:08.355Z,47.30
2018-07-16T09:45:36.455Z,47.10
2018-07-16T09:48:04.515Z,47.80
2018-07-16T09:50:32.591Z,48.00
2018-07-16T09:55:28.610Z,47.20
2018-07-16T09:57:57.208Z,46.60
2018-07-16T10:00:30.719Z,47.80
2018-07-16T10:02:58.805Z,47.00
2018-07-16T10:05:28.207Z,47.00
2018-07-16T10:07:56.285Z,46.90
2018-07-16T10:10:24.355Z,46.40
2018-07-16T10:12:52.496Z,46.80
2018-07-16T10:15:20.559Z,46.60
2018-07-16T10:17:48.654Z,46.60
2018-07-16T10:20:16.753Z,46.50
2018-07-16T10:22:44.831Z,47.00
2018-07-16T10:25:12.894Z,47.10
2018-07-16T10:27:41.004Z,47.60
2018-07-16T10:30:09.161Z,47.50
2018-07-16T10:32:37.187Z,47.80
2018-07-16T10:35:05.363Z,47.20
2018-07-16T10:37:33.436Z,47.50
2018-07-16T10:40:01.531Z,47.20
2018-07-16T10:42:29.672Z,47.90
2018-07-16T10:44:57.753Z,47.10
2018-07-16T10:47:25.914Z,47.10
2018-07-16T10:49:54.002Z,46.80
2018-07-16T10:52:22.111Z,46.70
2018-07-16T10:54:50.237Z,46.40
2018-07-16T10:57:18.604Z,46.40
2018-07-16T10:59:46.671Z,46.40
2018-07-16T11:02:14.740Z,46.30
2018-07-16T11:04:42.815Z,45.60
2018-07-16T11:07:10.884Z,44.80
2018-07-16T11:09:38.968Z,45.90
2018-07-16T11:12:07.440Z,45.20
2018-07-16T11:14:35.504Z,45.60
2018-07-16T11:17:03.575Z,45.10
2018-07-16T11:19:31.644Z,44.50
2018-07-16T11:21:59.739Z,44.40
2018-07-16T11:24:28.087Z,44.90
2018-07-16T11:26:56.155Z,44.80
2018-07-16T11:29:24.262Z,44.90
2018-07-16T11:31:52.330Z,45.70
2018-07-16T11:34:20.407Z,45.20
2018-07-16T11:36:48.471Z,45.40
2018-07-16T11:39:16.531Z,45.60
2018-07-16T11:41:44.687Z,45.30
2018-07-16T11:44:12.783Z,45.60
2018-07-16T11:46:41.163Z,45.70
2018-07-16T11:49:09.239Z,45.00
2018-07-16T11:51:37.418Z,44.80
2018-07-16T11:54:05.540Z,45.30
2018-07-16T11:56:33.630Z,45.80
2018-07-16T11:59:01.841Z,44.80
2018-07-16T12:01:29.801Z,44.90
2018-07-16T12:03:57.859Z,44.80
2018-07-16T12:06:26.211Z,45.30
2018-07-16T12:08:55.659Z,45.70
2018-07-16T12:11:23.955Z,45.50
2018-07-16T12:13:52.319Z,45.80
2018-07-16T12:16:20.383Z,46.00
2018-07-16T12:18:48.451Z,45.70
2018-07-16T12:21:16.523Z,45.80
2018-07-16T12:23:44.595Z,45.50
2018-07-16T12:26:12.718Z,45.70
2018-07-16T12:28:40.785Z,45.40
2018-07-16T12:31:09.182Z,44.80
2018-07-16T12:33:37.247Z,45.10
2018-07-16T12:36:05.315Z,45.80
2018-07-16T12:38:33.491Z,45.40
2018-07-16T12:41:01.554Z,45.00
2018-07-16T12:43:29.636Z,45.00
2018-07-16T12:45:57.751Z,45.50
2018-07-16T12:48:25.821Z,45.00
2018-07-16T12:50:54.204Z,44.40
2018-07-16T12:53:22.259Z,44.20
2018-07-16T12:55:50.322Z,44.60
2018-07-16T12:58:18.383Z,44.90
2018-07-16T13:00:46.455Z,45.00
2018-07-16T13:03:14.514Z,45.00
2018-07-16T13:05:42.620Z,43.70
2018-07-16T13:08:10.872Z,43.20
2018-07-16T13:10:39.386Z,44.30
2018-07-16T13:13:07.715Z,44.60
2018-07-16T13:15:35.831Z,45.00
2018-07-16T13:18:03.942Z,44.50
2018-07-16T13:20:32.114Z,44.00
2018-07-16T13:23:00.212Z,43.90
2018-07-16T13:25:28.284Z,43.60
2018-07-16T13:27:56.618Z,42.70
2018-07-16T13:30:24.724Z,43.70
2018-07-16T13:32:52.827Z,43.90
2018-07-16T13:35:20.879Z,44.60
2018-07-16T13:37:48.939Z,45.10
2018-07-16T13:40:17.034Z,43.10
2018-07-16T13:42:45.424Z,45.50
2018-07-16T13:45:13.495Z,45.30
2018-07-16T13:47:41.584Z,44.70
2018-07-16T13:50:09.650Z,44.10
2018-07-16T13:52:37.723Z,43.10
2018-07-16T13:55:05.799Z,43.60
2018-07-16T13:57:33.868Z,42.40
2018-07-16T14:00:02.610Z,43.60
2018-07-16T14:02:30.678Z,43.90
2018-07-16T14:04:58.990Z,43.40
2018-07-16T14:07:27.207Z,43.80
2018-07-16T14:09:55.307Z,43.90
2018-07-16T14:17:19.144Z,43.60
2018-07-16T14:19:47.459Z,43.90
2018-07-16T14:22:15.562Z,43.80
2018-07-16T14:24:43.766Z,43.80
2018-07-16T14:27:11.852Z,44.20
2018-07-16T14:29:40.014Z,43.30
2018-07-16T14:32:08.760Z,44.30
2018-07-16T14:34:36.847Z,42.40
2018-07-16T14:37:04.931Z,41.60
2018-07-16T14:39:33.127Z,41.10
2018-07-16T14:42:01.102Z,42.10
2018-07-16T14:44:29.174Z,41.80
2018-07-16T14:46:57.320Z,43.10
2018-07-16T14:49:25.415Z,42.70
2018-07-16T14:51:53.547Z,43.40
2018-07-16T14:54:21.632Z,43.50
2018-07-16T14:56:49.723Z,43.30
2018-07-16T14:59:17.807Z,44.20
2018-07-16T15:01:45.906Z,44.90
2018-07-16T15:04:13.966Z,44.80
2018-07-16T15:06:42.699Z,45.70
2018-07-16T15:09:11.346Z,45.10
2018-07-16T15:11:39.439Z,44.30
2018-07-16T15:14:07.936Z,44.70
2018-07-16T15:16:36.109Z,43.00
2018-07-16T15:19:04.219Z,43.50
2018-07-16T15:21:32.663Z,41.30
2018-07-16T15:24:00.634Z,42.10
2018-07-16T15:26:28.723Z,43.90
2018-07-16T15:28:56.826Z,46.70
2018-07-16T15:31:25.348Z,45.80
2018-07-16T15:33:53.583Z,48.50
2018-07-16T15:36:21.707Z,51.80
2018-07-16T15:38:50.073Z,53.20
2018-07-16T15:41:18.175Z,53.70
2018-07-16T15:43:46.479Z,55.00
2018-07-16T15:46:14.567Z,56.20
2018-07-16T15:48:42.761Z,51.10
2018-07-16T15:51:11.067Z,47.30
2018-07-16T15:53:39.489Z,47.90
2018-07-16T15:56:07.568Z,46.00
2018-07-16T15:58:35.634Z,45.70
2018-07-16T16:01:03.734Z,46.90
2018-07-16T16:03:31.819Z,47.00
2018-07-16T16:05:59.896Z,45.60
2018-07-16T16:08:28.602Z,46.20
2018-07-16T16:10:56.744Z,46.10
2018-07-16T16:13:24.831Z,45.70
2018-07-16T16:15:52.942Z,45.60
2018-07-16T16:18:21.011Z,45.30
2018-07-16T16:20:49.399Z,45.20
2018-07-16T16:23:17.581Z,45.50
2018-07-16T16:25:45.588Z,45.40
2018-07-16T16:28:13.701Z,44.40
2018-07-16T16:30:42.101Z,45.40
2018-07-16T16:33:10.186Z,45.40
2018-07-16T16:35:38.275Z,45.30
2018-07-16T16:38:06.364Z,45.40
2018-07-16T16:40:34.483Z,45.30
2018-07-16T16:43:02.635Z,45.80
2018-07-16T16:45:30.933Z,46.40
2018-07-16T16:47:59.091Z,48.90
2018-07-16T16:50:27.179Z,49.60
2018-07-16T16:52:55.335Z,47.70
2018-07-16T16:55:23.391Z,46.10
2018-07-16T16:57:51.491Z,46.00
2018-07-16T17:00:19.646Z,46.10
2018-07-16T17:02:47.867Z,46.00
2018-07-16T17:05:16.199Z,46.40
2018-07-16T17:07:44.259Z,46.10
2018-07-16T17:10:12.647Z,45.40
2018-07-16T17:12:40.731Z,45.40
2018-07-16T17:15:08.788Z,45.10
2018-07-16T17:17:36.871Z,45.10
2018-07-16T17:20:05.195Z,44.90
2018-07-16T17:22:33.350Z,44.90
2018-07-16T17:25:01.645Z,43.40
2018-07-16T17:27:29.994Z,43.90
2018-07-16T17:29:58.051Z,43.40
2018-07-16T17:32:26.122Z,43.50
2018-07-16T17:34:54.318Z,42.80
2018-07-16T17:37:22.379Z,42.80
2018-07-16T17:39:50.475Z,43.40
2018-07-16T17:42:18.560Z,43.20
2018-07-16T17:47:14.994Z,42.90
2018-07-16T17:49:43.597Z,42.80
2018-07-16T17:52:11.594Z,43.10
2018-07-16T17:54:39.683Z,43.30
2018-07-16T17:57:08.327Z,43.30
2018-07-16T17:59:36.398Z,42.90
2018-07-16T18:02:04.522Z,42.80
2018-07-16T18:04:32.630Z,42.30
2018-07-16T18:07:00.871Z,42.60
2018-07-16T18:09:29.008Z,42.90
2018-07-16T18:11:57.091Z,42.50
2018-07-16T18:14:25.183Z,42.80
2018-07-16T18:16:53.522Z,42.90
2018-07-16T18:19:21.701Z,43.00
2018-07-16T18:21:50.072Z,42.50
2018-07-16T18:24:18.171Z,42.70
2018-07-16T18:26:46.243Z,42.90
2018-07-16T18:29:14.327Z,42.10
2018-07-16T18:31:42.726Z,41.50
2018-07-16T18:34:10.832Z,41.70
2018-07-16T18:36:38.887Z,41.30
2018-07-16T18:39:08.350Z,41.10
2018-07-16T18:41:36.429Z,41.30
2018-07-16T18:44:04.510Z,41.40
2018-07-16T18:46:32.851Z,41.50
2018-07-16T18:49:00.995Z,41.40
2018-07-16T18:51:29.047Z,41.60
2018-07-16T18:53:57.121Z,42.10
2018-07-16T18:56:25.207Z,42.20
2018-07-16T18:58:53.290Z,42.50
2018-07-16T19:01:21.351Z,42.40
2018-07-16T19:03:49.447Z,42.50
2018-07-16T19:06:17.512Z,42.70
2018-07-16T19:08:45.606Z,43.00
2018-07-16T19:11:13.686Z,43.20
2018-07-16T19:13:41.901Z,43.40
2018-07-16T19:16:09.955Z,43.60
2018-07-16T19:18:38.040Z,43.70
2018-07-16T19:21:06.127Z,43.80
2018-07-16T19:23:34.218Z,44.00
2018-07-16T19:26:02.288Z,44.10
2018-07-16T19:28:30.793Z,44.20
2018-07-16T19:30:58.855Z,44.30
2018-07-16T19:33:26.946Z,44.40
2018-07-16T19:35:55.056Z,44.50
2018-07-16T19:38:23.225Z,44.60
2018-07-16T19:40:51.242Z,44.60
2018-07-16T19:43:19.339Z,44.70
2018-07-16T19:45:47.402Z,44.80
2018-07-16T19:48:15.502Z,44.90
2018-07-16T19:50:43.579Z,45.00
2018-07-16T19:53:11.810Z,45.20
2018-07-16T19:55:39.892Z,45.20
2018-07-16T19:58:08.024Z,45.40
2018-07-16T20:00:36.100Z,45.30
2018-07-16T20:03:04.468Z,45.40
2018-07-16T20:05:32.547Z,45.40
2018-07-16T20:08:00.634Z,45.50
2018-07-16T20:10:28.743Z,45.60
2018-07-16T20:12:56.799Z,46.10
2018-07-16T20:15:25.412Z,46.00
2018-07-16T20:17:53.387Z,46.20
2018-07-16T20:20:21.499Z,46.20
2018-07-16T20:22:49.555Z,46.30
2018-07-16T20:25:17.676Z,46.40
2018-07-16T20:27:46.106Z,46.40
2018-07-16T20:30:14.183Z,46.40
2018-07-16T20:32:42.268Z,46.40
2018-07-16T20:35:10.335Z,47.00
2018-07-16T20:37:38.397Z,46.60
2018-07-16T20:40:06.474Z,46.60
2018-07-16T20:42:40.879Z,46.70
2018-07-16T20:45:10.412Z,46.80
2018-07-16T20:47:38.526Z,47.70
2018-07-16T20:50:06.807Z,46.90
2018-07-16T20:52:34.898Z,47.30
2018-07-16T20:55:02.995Z,47.10
2018-07-16T20:57:31.091Z,47.20
2018-07-16T20:59:59.176Z,47.40
2018-07-16T21:02:27.267Z,47.50
2018-07-16T21:04:55.344Z,47.50
2018-07-16T21:07:23.399Z,47.50
2018-07-16T21:09:51.471Z,47.50
2018-07-16T21:12:19.533Z,47.50
2018-07-16T21:14:47.611Z,47.50
2018-07-16T21:17:15.745Z,47.40
2018-07-16T21:19:43.931Z,47.50
2018-07-16T21:22:11.999Z,47.50
2018-07-16T21:24:40.339Z,47.40
2018-07-16T21:27:08.651Z,47.40
2018-07-16T21:29:36.948Z,47.50
2018-07-16T21:32:05.035Z,47.50
2018-07-16T21:34:33.114Z,47.50
2018-07-16T21:37:01.175Z,47.50
2018-07-16T21:39:29.264Z,47.10
2018-07-16T21:41:57.331Z,47.50
2018-07-16T21:44:25.428Z,47.50
2018-07-16T21:46:53.524Z,47.50
2018-07-16T21:49:21.587Z,47.50
2018-07-16T21:51:49.658Z,47.50
2018-07-16T21:54:17.722Z,47.50
2018-07-16T21:56:45.787Z,47.60
2018-07-16T21:59:13.977Z,47.60
2018-07-16T22:01:42.067Z,47.60
2018-07-16T22:04:10.175Z,47.60
2018-07-16T22:06:38.331Z,47.60
2018-07-16T22:09:07.050Z,47.60
2018-07-16T22:11:35.132Z,47.60
2018-07-16T22:14:03.411Z,47.70
2018-07-16T22:16:31.633Z,47.70
2018-07-16T22:18:59.698Z,47.70
2018-07-16T22:21:27.791Z,47.70
2018-07-16T22:23:55.883Z,47.70
2018-07-16T22:26:23.986Z,47.70
2018-07-16T22:28:52.067Z,47.70
2018-07-16T22:31:20.142Z,47.80
2018-07-16T22:33:48.219Z,47.80
2018-07-16T22:36:16.339Z,47.70
2018-07-16T22:38:44.626Z,47.80
2018-07-16T22:41:12.719Z,47.80
2018-07-16T22:43:40.796Z,47.80
2018-07-16T22:46:08.870Z,47.80
2018-07-16T22:48:36.939Z,47.80
2018-07-16T22:51:05.331Z,47.80
2018-07-16T22:53:33.503Z,47.90
2018-07-16T22:56:01.675Z,47.90
2018-07-16T22:58:29.863Z,47.80
2018-07-16T23:00:57.938Z,47.90
2018-07-16T23:03:25.995Z,47.90
2018-07-16T23:05:54.058Z,47.90
2018-07-16T23:08:22.123Z,47.90
2018-07-16T23:10:50.194Z,47.90
2018-07-16T23:13:18.250Z,47.90
2018-07-16T23:15:46.499Z,47.90
2018-07-16T23:18:14.569Z,48.00
2018-07-16T23:20:42.737Z,48.00
2018-07-16T23:23:10.799Z,48.00
2018-07-16T23:25:38.862Z,47.90
2018-07-16T23:28:06.922Z,48.00
2018-07-16T23:30:35.031Z,48.00
2018-07-16T23:33:03.099Z,48.00
2018-07-16T23:35:31.166Z,48.00
2018-07-16T23:37:59.279Z,48.00
2018-07-16T23:40:27.346Z,48.10
2018-07-16T23:42:55.411Z,48.10
2018-07-16T23:45:23.486Z,48.00
2018-07-16T23:47:51.564Z,48.10
2018-07-16T23:50:19.632Z,48.10
2018-07-16T23:52:47.687Z,48.10
2018-07-16T23:55:15.750Z,48.10
2018-07-16T23:57:43.827Z,48.10
